Mitchell, SD (57301)

8:01 AM CDT on October 30, 2014 (GMT -0500)
Pleasant Hills | Change Station
CLOSE
Current Station
Personal Weather Station
Location: Mitchell, SD
Elevation: 1285 ft
Nearby Weather Stations

Elev 1285 ft 43.73 °N, 98.01 °W | Updated 1 minute ago

Clear
Clear
41.3 °F
Feels Like 38 °F
N
4.5
Wind Variable Wind from West
Gusts 9.2 mph

Today
High -- | Low -- °F
--% Chance of Precip.
Yesterday
High -- | Low -- °F
Precip. -- in
8:05 AM 6:25 PM
Waxing Crescent, 43% visible
Pressure 30.07 in
Visibility 10.0 miles
Clouds Clear
Windchill 38 °F
Dew Point 38 °F
Humidity 87%
Rainfall 0.00 in
Snow Depth Not available.
UV 0 out of 12
Pollen 1.00 out of 12
Air Quality Not available.
Flu Activity Not available.
METAR KMHE 301153Z AUTO 30009KT 10SM CLR 04/01 A3005 RMK AO2 SLP182 T00440011 10083 20044 53020

More Conditions Fewer Conditions

Pressure 30.07 in
Visibility 10.0 miles
Clouds Clear
Windchill 38 °F
Dew Point 38 °F
Humidity 87%
Rainfall 0.00 in
Snow Depth Not available.
UV 0 out of 12
Pollen 1.00 out of 12
Air Quality Not available.
Flu Activity Not available.
METAR KMHE 301153Z AUTO 30009KT 10SM CLR 04/01 A3005 RMK AO2 SLP182 T00440011 10083 20044 53020

More Conditions Fewer Conditions

10-Day Weather Forecast

Almanac

Astronomy

Oct. 30, 2014 Rise Set
Actual Time
Civil Twilight
Nautical Twilight
Astronomical Twilight
Moon
Length of Visible Light
Length of Day
Tomorrow will be .
, % of the Moon is Illuminated

Today's Extremes

State Highs State Lows

Community

WunderPhotos

Upload Photos

1,766,354 photos uploaded!

WunderBlogs® & News

Nearby

Air Quality

  Air Quality AQ Index Pollutant
Not available.

Snow Depth

Station Depth Elevation

Earthquake Activity

City Distance Mag. Time & Date
Minimum magnitude displayed is 2.5.

Coastal Water Temperatures

Place Temperature

Nearby Weather Stations